Alapaha, GA

12:10 AM EST on December 29, 2014 (GMT -0500)
Forest Lakes | Change Station
CLOSE
Current Station
Personal Weather Station
Location: Tifton, GA
Elevation: 329 ft
Nearby Weather Stations

Elev 329 ft 31.50 °N, 83.44 °W | Updated 34 seconds ago

Mostly Cloudy
Mostly Cloudy
64.6 °F
Feels Like 64.6 °F
N
3.0
Wind Variable Wind from SSW
Gusts 8.0 mph

Today
High -- | Low -- °F
--% Chance of Precip.
Yesterday
High -- | Low -- °F
Precip. -- in
7:31 AM 5:38 PM
First Quarter, 55% visible
Pressure 30.07 in
Visibility 10.0 miles
Clouds Overcast 600 ft
Dew Point 63 °F
Humidity 95%
Rainfall 0.00 in
Snow Depth Not available.
UV 0 out of 12
Pollen 1.30 out of 12
Air Quality Not available.
Flu Activity Not available.
METAR KTMA 290455Z AUTO 22005KT 10SM OVC006 18/18 A3007 RMK AO2 T01790175

More Conditions Fewer Conditions

Pressure 30.07 in
Visibility 10.0 miles
Clouds Overcast 600 ft
Dew Point 63 °F
Humidity 95%
Rainfall 0.00 in
Snow Depth Not available.
UV 0 out of 12
Pollen 1.30 out of 12
Air Quality Not available.
Flu Activity Not available.
METAR KTMA 290455Z AUTO 22005KT 10SM OVC006 18/18 A3007 RMK AO2 T01790175

More Conditions Fewer Conditions

10-Day Weather Forecast

Almanac

Astronomy

Dec. 29, 2014 Rise Set
Actual Time
Civil Twilight
Nautical Twilight
Astronomical Twilight
Moon
Length of Visible Light
Length of Day
Tomorrow will be .
, % of the Moon is Illuminated

Today's Extremes

State Highs State Lows

Community

WunderPhotos

Upload Photos

1,781,530 photos uploaded!

WunderBlogs® & News

Nearby

Air Quality

  Air Quality AQ Index Pollutant
Not available.

Snow Depth

Station Depth Elevation

Earthquake Activity

City Distance Mag. Time & Date
Minimum magnitude displayed is 2.5.

Coastal Water Temperatures

Place Temperature

Nearby Weather Stations